Laurens, SC

4:13 AM EST on December 05, 2016 (GMT -0500)
Walker Family Farm | | Change Station

Elev 620 ft 34.42 °N, 81.98 °W | Updated 2 minutes ago

Light Rain
Light Rain
42.2 °F
Feels Like 42 °F
N
0.0
Wind Variable Wind from ENE
Gusts 6.0 mph

Today
High -- | Low -- °F
--% Chance of Precip.
Yesterday
High -- | Low -- °F
Precip. -- in
Pressure 30.06 in
Visibility 10.0 miles
Clouds Overcast 700 ft
Windchill 42 °F
Dew Point 41 °F
Humidity 95%
Rainfall 0.09 in
Snow Depth Not available.
7:20 AM 5:17 PM
Waxing Crescent, 30% visible
METAR KGRD 050856Z AUTO 35008KT 10SM -RA OVC007 06/04 A3005 RMK AO2 CIG 004V010 SLP177 P0002 60008 T00560044 55003
Pressure 30.06 in
Visibility 10.0 miles
Clouds Overcast 700 ft
Windchill 42 °F
Dew Point 41 °F
Humidity 95%
Rainfall 0.09 in
Snow Depth Not available.
7:20 AM 5:17 PM
Waxing Crescent, 30% visible
METAR KGRD 050856Z AUTO 35008KT 10SM -RA OVC007 06/04 A3005 RMK AO2 CIG 004V010 SLP177 P0002 60008 T00560044 55003

10-Day Weather Forecast

Almanac

Astronomy

Dec. 05, 2016 Rise Set
Actual Time
Civil Twilight
Nautical Twilight
Astronomical Twilight
Moon
Length of Visible Light
Length of Day
Tomorrow will be .
, % of the Moon is Illuminated

Today's Extremes

State Highs State Lows

Community

WunderPhotos

Upload Photos

1,955,771 photos uploaded!

WunderBlog® & News

Nearby

Air Quality

  Air Quality AQ Index Pollutant
Not available.

Snow Depth

Station Depth Elevation

Earthquake Activity

City Distance Mag. Time & Date
Minimum magnitude displayed is 2.5.

Coastal Water Temperatures

Place Temperature

Stations

Nearby Weather Stations

Station Location Temp. Windchill Dew Point Humidity Wind Precip. Elev Updated Type
                   

Watches & Warnings

There are currently no watches in effect.